sensor_id;sensor_type;location;lat;lon;timestamp;pressure;altitude;pressure_sealevel;temperature;humidity
70248;BME280;57641;51.416;5.506;2023-04-06T00:01:54;101903.56;;;9.16;45.40
70248;BME280;57641;51.416;5.506;2023-04-06T00:04:20;101902.00;;;9.13;45.76
70248;BME280;57641;51.416;5.506;2023-04-06T00:06:45;101896.44;;;9.16;44.81
70248;BME280;57641;51.416;5.506;2023-04-06T00:09:11;101895.84;;;9.13;45.33
70248;BME280;57641;51.416;5.506;2023-04-06T00:11:40;101894.38;;;9.09;45.74
70248;BME280;57641;51.416;5.506;2023-04-06T00:14:05;101898.72;;;9.10;45.78
70248;BME280;57641;51.416;5.506;2023-04-06T00:16:31;101898.84;;;9.08;45.87
70248;BME280;57641;51.416;5.506;2023-04-06T00:18:56;101899.06;;;9.05;46.04
70248;BME280;57641;51.416;5.506;2023-04-06T00:21:22;101898.22;;;9.05;45.91
70248;BME280;57641;51.416;5.506;2023-04-06T00:23:47;101898.34;;;9.03;46.02
70248;BME280;57641;51.416;5.506;2023-04-06T00:26:13;101895.81;;;9.02;46.22
70248;BME280;57641;51.416;5.506;2023-04-06T00:28:38;101886.13;;;9.01;45.90
70248;BME280;57641;51.416;5.506;2023-04-06T00:31:04;101878.25;;;8.99;46.55
70248;BME280;57641;51.416;5.506;2023-04-06T00:33:30;101887.09;;;9.00;46.86
70248;BME280;57641;51.416;5.506;2023-04-06T00:35:58;101882.13;;;8.95;46.54
70248;BME280;57641;51.416;5.506;2023-04-06T00:38:24;101870.78;;;8.93;46.67
70248;BME280;57641;51.416;5.506;2023-04-06T00:40:50;101878.00;;;8.91;46.47
70248;BME280;57641;51.416;5.506;2023-04-06T00:43:15;101874.50;;;8.90;46.73
70248;BME280;57641;51.416;5.506;2023-04-06T00:45:41;101870.38;;;8.86;46.43
70248;BME280;57641;51.416;5.506;2023-04-06T00:48:08;101866.13;;;8.84;46.22
70248;BME280;57641;51.416;5.506;2023-04-06T00:50:35;101861.78;;;8.83;46.61
70248;BME280;57641;51.416;5.506;2023-04-06T00:53:01;101868.09;;;8.82;46.55
70248;BME280;57641;51.416;5.506;2023-04-06T00:55:27;101857.44;;;8.82;46.20
70248;BME280;57641;51.416;5.506;2023-04-06T00:57:54;101859.25;;;8.81;46.53
70248;BME280;57641;51.416;5.506;2023-04-06T01:00:20;101853.19;;;8.79;46.50
70248;BME280;57641;51.416;5.506;2023-04-06T01:02:46;101849.69;;;8.79;47.03
70248;BME280;57641;51.416;5.506;2023-04-06T01:05:13;101852.34;;;8.79;47.19
70248;BME280;57641;51.416;5.506;2023-04-06T01:07:39;101856.97;;;8.77;46.57
70248;BME280;57641;51.416;5.506;2023-04-06T01:10:05;101841.09;;;8.75;46.82
70248;BME280;57641;51.416;5.506;2023-04-06T01:12:30;101834.09;;;8.74;46.63
70248;BME280;57641;51.416;5.506;2023-04-06T01:14:56;101836.63;;;8.76;46.69
70248;BME280;57641;51.416;5.506;2023-04-06T01:17:21;101840.38;;;8.73;46.95
70248;BME280;57641;51.416;5.506;2023-04-06T01:19:47;101839.50;;;8.73;46.82
70248;BME280;57641;51.416;5.506;2023-04-06T01:22:18;101832.53;;;8.72;47.03
70248;BME280;57641;51.416;5.506;2023-04-06T01:24:44;101835.41;;;8.69;47.03
70248;BME280;57641;51.416;5.506;2023-04-06T01:27:10;101834.69;;;8.67;46.96
70248;BME280;57641;51.416;5.506;2023-04-06T01:29:39;101837.91;;;8.59;46.54
70248;BME280;57641;51.416;5.506;2023-04-06T01:32:08;101836.59;;;8.65;46.92
70248;BME280;57641;51.416;5.506;2023-04-06T01:34:34;101818.84;;;8.65;47.08
70248;BME280;57641;51.416;5.506;2023-04-06T01:36:59;101830.09;;;8.69;46.94
70248;BME280;57641;51.416;5.506;2023-04-06T01:39:26;101829.03;;;8.71;46.96
70248;BME280;57641;51.416;5.506;2023-04-06T01:41:51;101826.38;;;8.71;46.71
70248;BME280;57641;51.416;5.506;2023-04-06T01:44:18;101812.81;;;8.74;47.27
70248;BME280;57641;51.416;5.506;2023-04-06T01:46:44;101822.75;;;8.72;47.46
70248;BME280;57641;51.416;5.506;2023-04-06T01:49:11;101820.09;;;8.72;47.09
70248;BME280;57641;51.416;5.506;2023-04-06T01:51:37;101820.78;;;8.74;47.46
70248;BME280;57641;51.416;5.506;2023-04-06T01:54:03;101807.50;;;8.74;47.51
70248;BME280;57641;51.416;5.506;2023-04-06T01:56:29;101813.41;;;8.78;47.38
70248;BME280;57641;51.416;5.506;2023-04-06T01:58:54;101805.44;;;8.78;47.35
70248;BME280;57641;51.416;5.506;2023-04-06T02:01:21;101805.59;;;8.76;47.55
70248;BME280;57641;51.416;5.506;2023-04-06T02:03:46;101800.75;;;8.81;47.52
70248;BME280;57641;51.416;5.506;2023-04-06T02:06:12;101799.06;;;8.80;47.75
70248;BME280;57641;51.416;5.506;2023-04-06T02:08:39;101801.59;;;8.82;48.01
70248;BME280;57641;51.416;5.506;2023-04-06T02:11:08;101803.41;;;8.81;47.16
70248;BME280;57641;51.416;5.506;2023-04-06T02:13:33;101786.25;;;8.85;47.84
70248;BME280;57641;51.416;5.506;2023-04-06T02:16:01;101792.78;;;8.81;48.17
70248;BME280;57641;51.416;5.506;2023-04-06T02:18:30;101788.91;;;8.85;48.00
70248;BME280;57641;51.416;5.506;2023-04-06T02:20:56;101783.22;;;8.90;48.29
70248;BME280;57641;51.416;5.506;2023-04-06T02:23:22;101782.28;;;8.91;48.43
70248;BME280;57641;51.416;5.506;2023-04-06T02:25:47;101776.59;;;8.96;47.41
70248;BME280;57641;51.416;5.506;2023-04-06T02:28:13;101775.50;;;8.98;47.11
70248;BME280;57641;51.416;5.506;2023-04-06T02:30:38;101779.72;;;9.01;47.01
70248;BME280;57641;51.416;5.506;2023-04-06T02:33:04;101782.41;;;9.01;46.80
70248;BME280;57641;51.416;5.506;2023-04-06T02:35:31;101771.63;;;9.02;46.73
70248;BME280;57641;51.416;5.506;2023-04-06T02:37:57;101772.00;;;9.09;46.87
70248;BME280;57641;51.416;5.506;2023-04-06T02:40:26;101773.81;;;9.08;46.46
70248;BME280;57641;51.416;5.506;2023-04-06T02:42:51;101765.47;;;9.13;46.94
70248;BME280;57641;51.416;5.506;2023-04-06T02:45:17;101763.41;;;9.16;46.81
70248;BME280;57641;51.416;5.506;2023-04-06T02:47:42;101753.38;;;9.20;46.14
70248;BME280;57641;51.416;5.506;2023-04-06T02:50:08;101756.16;;;9.18;46.47
70248;BME280;57641;51.416;5.506;2023-04-06T02:52:34;101753.00;;;9.24;46.10
70248;BME280;57641;51.416;5.506;2023-04-06T02:55:00;101748.53;;;9.25;46.35
70248;BME280;57641;51.416;5.506;2023-04-06T02:57:28;101753.59;;;9.28;45.53
70248;BME280;57641;51.416;5.506;2023-04-06T02:59:54;101744.88;;;9.26;45.81
70248;BME280;57641;51.416;5.506;2023-04-06T03:02:20;101744.66;;;9.29;46.11
70248;BME280;57641;51.416;5.506;2023-04-06T03:04:51;101744.53;;;9.30;46.11
70248;BME280;57641;51.416;5.506;2023-04-06T03:07:16;101736.19;;;9.35;46.20
70248;BME280;57641;51.416;5.506;2023-04-06T03:09:42;101738.84;;;9.35;45.81
70248;BME280;57641;51.416;5.506;2023-04-06T03:12:10;101737.75;;;9.38;46.23
70248;BME280;57641;51.416;5.506;2023-04-06T03:14:36;101741.38;;;9.37;45.45
70248;BME280;57641;51.416;5.506;2023-04-06T03:17:04;101724.44;;;9.38;46.14
70248;BME280;57641;51.416;5.506;2023-04-06T03:19:30;101729.63;;;9.39;45.86
70248;BME280;57641;51.416;5.506;2023-04-06T03:21:56;101730.50;;;9.40;46.07
70248;BME280;57641;51.416;5.506;2023-04-06T03:24:21;101726.72;;;9.42;45.90
70248;BME280;57641;51.416;5.506;2023-04-06T03:26:47;101724.78;;;9.44;46.26
70248;BME280;57641;51.416;5.506;2023-04-06T03:29:12;101721.88;;;9.47;46.19
70248;BME280;57641;51.416;5.506;2023-04-06T03:31:38;101726.50;;;9.45;45.72
70248;BME280;57641;51.416;5.506;2023-04-06T03:34:03;101726.34;;;9.47;45.82
70248;BME280;57641;51.416;5.506;2023-04-06T03:36:34;101726.81;;;9.52;45.73
70248;BME280;57641;51.416;5.506;2023-04-06T03:39:00;101725.00;;;9.52;45.71
70248;BME280;57641;51.416;5.506;2023-04-06T03:41:26;101721.47;;;9.52;46.34
70248;BME280;57641;51.416;5.506;2023-04-06T03:43:55;101719.81;;;9.51;46.37
70248;BME280;57641;51.416;5.506;2023-04-06T03:46:21;101718.34;;;9.47;46.78
70248;BME280;57641;51.416;5.506;2023-04-06T03:48:48;101717.28;;;9.49;47.39
70248;BME280;57641;51.416;5.506;2023-04-06T03:51:14;101719.81;;;9.51;46.66
70248;BME280;57641;51.416;5.506;2023-04-06T03:53:40;101719.09;;;9.49;47.41
70248;BME280;57641;51.416;5.506;2023-04-06T03:56:06;101718.25;;;9.48;47.03
70248;BME280;57641;51.416;5.506;2023-04-06T03:58:31;101719.09;;;9.49;47.62
70248;BME280;57641;51.416;5.506;2023-04-06T04:00:57;101717.66;;;9.45;46.89
70248;BME280;57641;51.416;5.506;2023-04-06T04:03:22;101728.78;;;9.50;46.34
70248;BME280;57641;51.416;5.506;2023-04-06T04:05:53;101723.44;;;9.50;46.13
70248;BME280;57641;51.416;5.506;2023-04-06T04:08:24;101719.66;;;9.52;46.64
70248;BME280;57641;51.416;5.506;2023-04-06T04:10:50;101724.41;;;9.49;46.39
70248;BME280;57641;51.416;5.506;2023-04-06T04:13:15;101722.72;;;9.48;45.95
70248;BME280;57641;51.416;5.506;2023-04-06T04:15:41;101719.94;;;9.49;46.34
70248;BME280;57641;51.416;5.506;2023-04-06T04:18:06;101722.34;;;9.52;45.99
70248;BME280;57641;51.416;5.506;2023-04-06T04:20:32;101722.22;;;9.54;45.83
70248;BME280;57641;51.416;5.506;2023-04-06T04:22:57;101719.44;;;9.55;46.33
70248;BME280;57641;51.416;5.506;2023-04-06T04:25:23;101723.91;;;9.55;45.97
70248;BME280;57641;51.416;5.506;2023-04-06T04:27:49;101722.94;;;9.56;46.05
70248;BME280;57641;51.416;5.506;2023-04-06T04:30:15;101718.59;;;9.55;46.28
70248;BME280;57641;51.416;5.506;2023-04-06T04:32:43;101720.28;;;9.56;46.42
70248;BME280;57641;51.416;5.506;2023-04-06T04:35:09;101709.63;;;9.56;45.91
70248;BME280;57641;51.416;5.506;2023-04-06T04:37:35;101717.63;;;9.56;45.74
70248;BME280;57641;51.416;5.506;2023-04-06T04:40:01;101713.28;;;9.55;45.76
70248;BME280;57641;51.416;5.506;2023-04-06T04:42:26;101718.72;;;9.53;45.92
70248;BME280;57641;51.416;5.506;2023-04-06T04:44:52;101710.03;;;9.51;45.07
70248;BME280;57641;51.416;5.506;2023-04-06T04:47:17;101710.72;;;9.53;45.94
70248;BME280;57641;51.416;5.506;2023-04-06T04:49:43;101704.44;;;9.54;45.90
70248;BME280;57641;51.416;5.506;2023-04-06T04:52:11;101709.03;;;9.52;45.77
70248;BME280;57641;51.416;5.506;2023-04-06T04:54:37;101706.25;;;9.54;46.25
70248;BME280;57641;51.416;5.506;2023-04-06T04:57:03;101707.94;;;9.55;46.28
70248;BME280;57641;51.416;5.506;2023-04-06T04:59:29;101709.38;;;9.59;46.69
70248;BME280;57641;51.416;5.506;2023-04-06T05:01:55;101702.50;;;9.56;46.45
70248;BME280;57641;51.416;5.506;2023-04-06T05:04:21;101703.47;;;9.55;46.84
70248;BME280;57641;51.416;5.506;2023-04-06T05:06:48;101709.63;;;9.56;47.74
70248;BME280;57641;51.416;5.506;2023-04-06T05:09:13;101703.47;;;9.55;48.16
70248;BME280;57641;51.416;5.506;2023-04-06T05:11:39;101709.88;;;9.53;47.95
70248;BME280;57641;51.416;5.506;2023-04-06T05:14:04;101703.47;;;9.55;47.53
70248;BME280;57641;51.416;5.506;2023-04-06T05:16:33;101708.78;;;9.55;47.81
70248;BME280;57641;51.416;5.506;2023-04-06T05:18:59;101710.50;;;9.56;47.51
70248;BME280;57641;51.416;5.506;2023-04-06T05:21:24;101701.38;;;9.59;47.32
70248;BME280;57641;51.416;5.506;2023-04-06T05:23:51;101701.97;;;9.62;47.08
70248;BME280;57641;51.416;5.506;2023-04-06T05:26:17;101707.28;;;9.62;47.48
70248;BME280;57641;51.416;5.506;2023-04-06T05:28:42;101711.41;;;9.66;46.64
70248;BME280;57641;51.416;5.506;2023-04-06T05:31:09;101710.44;;;9.67;47.14
70248;BME280;57641;51.416;5.506;2023-04-06T05:33:35;101711.03;;;9.71;46.73
70248;BME280;57641;51.416;5.506;2023-04-06T05:36:00;101704.75;;;9.72;45.55
70248;BME280;57641;51.416;5.506;2023-04-06T05:38:26;101713.31;;;9.75;45.65
70248;BME280;57641;51.416;5.506;2023-04-06T05:40:54;101708.97;;;9.74;45.74
70248;BME280;57641;51.416;5.506;2023-04-06T05:43:21;101707.50;;;9.82;45.72
70248;BME280;57641;51.416;5.506;2023-04-06T05:45:46;101702.75;;;9.85;45.82
70248;BME280;57641;51.416;5.506;2023-04-06T05:48:11;101701.78;;;9.86;45.68
70248;BME280;57641;51.416;5.506;2023-04-06T05:50:37;101698.84;;;9.89;45.56
70248;BME280;57641;51.416;5.506;2023-04-06T05:53:03;101702.13;;;9.93;45.74
70248;BME280;57641;51.416;5.506;2023-04-06T05:55:29;101695.44;;;9.98;45.93
70248;BME280;57641;51.416;5.506;2023-04-06T05:57:54;101702.69;;;9.96;44.45
70248;BME280;57641;51.416;5.506;2023-04-06T06:00:20;101706.53;;;10.03;44.50
70248;BME280;57641;51.416;5.506;2023-04-06T06:02:46;101700.09;;;10.06;44.76
70248;BME280;57641;51.416;5.506;2023-04-06T06:05:11;101694.38;;;10.10;44.97
70248;BME280;57641;51.416;5.506;2023-04-06T06:07:37;101705.03;;;10.10;43.75
70248;BME280;57641;51.416;5.506;2023-04-06T06:10:03;101712.78;;;10.13;43.84
70248;BME280;57641;51.416;5.506;2023-04-06T06:12:29;101703.59;;;10.18;44.57
70248;BME280;57641;51.416;5.506;2023-04-06T06:14:55;101701.50;;;10.21;44.75
70248;BME280;57641;51.416;5.506;2023-04-06T06:17:21;101698.59;;;10.24;44.37
70248;BME280;57641;51.416;5.506;2023-04-06T06:19:46;101696.09;;;10.32;43.85
70248;BME280;57641;51.416;5.506;2023-04-06T06:22:14;101705.06;;;10.31;43.56
70248;BME280;57641;51.416;5.506;2023-04-06T06:24:40;101704.53;;;10.37;43.55
70248;BME280;57641;51.416;5.506;2023-04-06T06:27:06;101702.47;;;10.41;43.17
70248;BME280;57641;51.416;5.506;2023-04-06T06:29:33;101697.31;;;10.49;43.50
70248;BME280;57641;51.416;5.506;2023-04-06T06:31:58;101701.88;;;10.37;43.62
70248;BME280;57641;51.416;5.506;2023-04-06T06:34:24;101706.44;;;10.46;42.79
70248;BME280;57641;51.416;5.506;2023-04-06T06:36:50;101704.06;;;10.53;43.51
70248;BME280;57641;51.416;5.506;2023-04-06T06:39:20;101703.31;;;10.62;43.79
70248;BME280;57641;51.416;5.506;2023-04-06T06:41:45;101706.13;;;10.70;43.87
70248;BME280;57641;51.416;5.506;2023-04-06T06:44:11;101707.31;;;10.77;43.28
70248;BME280;57641;51.416;5.506;2023-04-06T06:46:36;101700.84;;;10.80;43.48
70248;BME280;57641;51.416;5.506;2023-04-06T06:49:05;101697.75;;;10.84;43.66
70248;BME280;57641;51.416;5.506;2023-04-06T06:51:30;101703.94;;;10.85;42.88
70248;BME280;57641;51.416;5.506;2023-04-06T06:53:56;101698.03;;;10.81;43.36
70248;BME280;57641;51.416;5.506;2023-04-06T06:56:21;101694.56;;;10.90;43.08
70248;BME280;57641;51.416;5.506;2023-04-06T06:58:47;101700.19;;;10.87;41.89
70248;BME280;57641;51.416;5.506;2023-04-06T07:01:12;101700.63;;;10.92;43.14
70248;BME280;57641;51.416;5.506;2023-04-06T07:03:38;101693.31;;;10.94;42.76
70248;BME280;57641;51.416;5.506;2023-04-06T07:06:03;101695.44;;;11.00;43.11
70248;BME280;57641;51.416;5.506;2023-04-06T07:08:29;101691.09;;;10.99;42.79
70248;BME280;57641;51.416;5.506;2023-04-06T07:10:55;101696.81;;;10.95;42.40
70248;BME280;57641;51.416;5.506;2023-04-06T07:13:23;101689.25;;;11.00;42.75
70248;BME280;57641;51.416;5.506;2023-04-06T07:15:49;101701.50;;;11.02;42.34
70248;BME280;57641;51.416;5.506;2023-04-06T07:18:16;101696.16;;;11.02;42.42
70248;BME280;57641;51.416;5.506;2023-04-06T07:20:42;101691.13;;;11.09;43.00
70248;BME280;57641;51.416;5.506;2023-04-06T07:23:07;101692.25;;;11.16;42.92
70248;BME280;57641;51.416;5.506;2023-04-06T07:25:33;101691.31;;;11.27;42.73
70248;BME280;57641;51.416;5.506;2023-04-06T07:27:58;101691.47;;;11.25;42.63
70248;BME280;57641;51.416;5.506;2023-04-06T07:30:24;101683.97;;;11.10;42.39
70248;BME280;57641;51.416;5.506;2023-04-06T07:32:52;101686.78;;;11.18;42.57
70248;BME280;57641;51.416;5.506;2023-04-06T07:35:18;101695.09;;;11.24;43.59
70248;BME280;57641;51.416;5.506;2023-04-06T07:37:43;101691.31;;;11.27;42.15
70248;BME280;57641;51.416;5.506;2023-04-06T07:40:09;101693.28;;;11.25;41.95
70248;BME280;57641;51.416;5.506;2023-04-06T07:42:35;101684.97;;;11.28;43.04
70248;BME280;57641;51.416;5.506;2023-04-06T07:45:00;101695.00;;;11.35;42.66
70248;BME280;57641;51.416;5.506;2023-04-06T07:47:26;101684.00;;;11.19;41.84
70248;BME280;57641;51.416;5.506;2023-04-06T07:49:51;101682.91;;;11.31;41.96
70248;BME280;57641;51.416;5.506;2023-04-06T07:52:17;101683.91;;;11.40;42.14
70248;BME280;57641;51.416;5.506;2023-04-06T07:54:42;101682.50;;;11.46;41.92
70248;BME280;57641;51.416;5.506;2023-04-06T07:57:08;101679.84;;;11.55;42.40
70248;BME280;57641;51.416;5.506;2023-04-06T07:59:33;101682.78;;;11.62;41.83
70248;BME280;57641;51.416;5.506;2023-04-06T08:01:59;101683.22;;;11.57;42.07
70248;BME280;57641;51.416;5.506;2023-04-06T08:04:25;101682.78;;;11.62;42.64
70248;BME280;57641;51.416;5.506;2023-04-06T08:06:51;101680.97;;;11.62;42.52
70248;BME280;57641;51.416;5.506;2023-04-06T08:09:16;101679.00;;;11.74;41.92
70248;BME280;57641;51.416;5.506;2023-04-06T08:11:42;101685.47;;;11.62;41.43
70248;BME280;57641;51.416;5.506;2023-04-06T08:14:07;101686.03;;;11.56;41.64
70248;BME280;57641;51.416;5.506;2023-04-06T08:16:33;101689.84;;;11.63;42.20
70248;BME280;57641;51.416;5.506;2023-04-06T08:18:59;101691.09;;;11.68;42.39
70248;BME280;57641;51.416;5.506;2023-04-06T08:21:25;101688.03;;;11.73;41.90
70248;BME280;57641;51.416;5.506;2023-04-06T08:23:50;101685.91;;;11.86;42.37
70248;BME280;57641;51.416;5.506;2023-04-06T08:26:16;101685.22;;;12.03;42.29
70248;BME280;57641;51.416;5.506;2023-04-06T08:28:42;101692.22;;;12.14;41.71
70248;BME280;57641;51.416;5.506;2023-04-06T08:31:07;101682.66;;;12.21;41.57
70248;BME280;57641;51.416;5.506;2023-04-06T08:33:33;101695.28;;;12.28;41.49
70248;BME280;57641;51.416;5.506;2023-04-06T08:36:12;101689.09;;;12.28;42.21
70248;BME280;57641;51.416;5.506;2023-04-06T08:38:38;101692.47;;;12.40;42.18
70248;BME280;57641;51.416;5.506;2023-04-06T08:41:11;101685.16;;;12.42;41.80
70248;BME280;57641;51.416;5.506;2023-04-06T08:43:48;101679.81;;;12.42;41.89
70248;BME280;57641;51.416;5.506;2023-04-06T08:46:15;101685.56;;;12.47;41.63
70248;BME280;57641;51.416;5.506;2023-04-06T08:48:45;101688.34;;;12.55;41.61
70248;BME280;57641;51.416;5.506;2023-04-06T08:51:11;101688.06;;;12.58;41.36
70248;BME280;57641;51.416;5.506;2023-04-06T08:53:38;101693.25;;;12.59;41.46
70248;BME280;57641;51.416;5.506;2023-04-06T08:56:04;101685.63;;;12.64;41.25
70248;BME280;57641;51.416;5.506;2023-04-06T08:58:35;101688.97;;;12.76;41.80
70248;BME280;57641;51.416;5.506;2023-04-06T09:01:08;101693.00;;;12.90;41.24
70248;BME280;57641;51.416;5.506;2023-04-06T09:03:39;101686.38;;;12.57;41.23
70248;BME280;57641;51.416;5.506;2023-04-06T09:06:06;101693.06;;;12.70;42.07
70248;BME280;57641;51.416;5.506;2023-04-06T09:08:34;101698.38;;;12.80;42.31
70248;BME280;57641;51.416;5.506;2023-04-06T09:11:03;101694.03;;;12.79;41.96
70248;BME280;57641;51.416;5.506;2023-04-06T09:13:30;101699.09;;;13.09;41.96
70248;BME280;57641;51.416;5.506;2023-04-06T09:16:04;101695.41;;;13.20;41.53
70248;BME280;57641;51.416;5.506;2023-04-06T09:18:31;101690.59;;;13.24;41.69
70248;BME280;57641;51.416;5.506;2023-04-06T09:23:24;101698.53;;;13.16;41.77
70248;BME280;57641;51.416;5.506;2023-04-06T09:25:49;101703.59;;;13.19;42.35
70248;BME280;57641;51.416;5.506;2023-04-06T09:28:15;101709.47;;;13.22;42.03
70248;BME280;57641;51.416;5.506;2023-04-06T09:30:49;101701.25;;;13.33;43.07
70248;BME280;57641;51.416;5.506;2023-04-06T09:33:22;101709.19;;;13.25;42.06
70248;BME280;57641;51.416;5.506;2023-04-06T09:35:51;101705.53;;;13.26;42.68
70248;BME280;57641;51.416;5.506;2023-04-06T09:38:17;101703.00;;;13.25;43.56
70248;BME280;57641;51.416;5.506;2023-04-06T09:40:50;101697.25;;;13.20;43.82
70248;BME280;57641;51.416;5.506;2023-04-06T09:43:29;101697.72;;;13.05;45.61
70248;BME280;57641;51.416;5.506;2023-04-06T09:45:56;101710.94;;;13.07;45.10
70248;BME280;57641;51.416;5.506;2023-04-06T09:48:22;101708.31;;;12.97;45.35
70248;BME280;57641;51.416;5.506;2023-04-06T09:50:50;101694.66;;;13.00;44.67
70248;BME280;57641;51.416;5.506;2023-04-06T09:53:19;101689.50;;;13.17;45.36
70248;BME280;57641;51.416;5.506;2023-04-06T09:55:46;101699.72;;;13.31;45.20
70248;BME280;57641;51.416;5.506;2023-04-06T09:58:19;101703.06;;;13.33;44.50
70248;BME280;57641;51.416;5.506;2023-04-06T10:01:07;101700.53;;;13.04;45.68
70248;BME280;57641;51.416;5.506;2023-04-06T10:04:01;101705.09;;;12.94;45.54
70248;BME280;57641;51.416;5.506;2023-04-06T10:06:31;101704.34;;;13.01;45.81
70248;BME280;57641;51.416;5.506;2023-04-06T10:08:59;101696.94;;;13.23;46.71
70248;BME280;57641;51.416;5.506;2023-04-06T10:11:27;101698.75;;;13.22;47.50
70248;BME280;57641;51.416;5.506;2023-04-06T10:13:55;101705.97;;;13.22;47.53
70248;BME280;57641;51.416;5.506;2023-04-06T10:16:21;101693.03;;;13.07;47.98
70248;BME280;57641;51.416;5.506;2023-04-06T10:18:58;101708.25;;;13.07;49.10
70248;BME280;57641;51.416;5.506;2023-04-06T10:21:28;101706.25;;;13.19;49.99
70248;BME280;57641;51.416;5.506;2023-04-06T10:24:02;101705.75;;;13.05;49.15
70248;BME280;57641;51.416;5.506;2023-04-06T10:26:32;101705.56;;;13.17;49.70
70248;BME280;57641;51.416;5.506;2023-04-06T10:29:03;101707.81;;;13.21;49.56
70248;BME280;57641;51.416;5.506;2023-04-06T10:31:29;101704.03;;;13.14;49.07
70248;BME280;57641;51.416;5.506;2023-04-06T10:33:56;101712.91;;;13.15;50.34
70248;BME280;57641;51.416;5.506;2023-04-06T10:36:27;101711.72;;;13.27;49.34
70248;BME280;57641;51.416;5.506;2023-04-06T10:38:58;101704.56;;;13.18;49.25
70248;BME280;57641;51.416;5.506;2023-04-06T10:41:35;101704.81;;;13.24;49.26
70248;BME280;57641;51.416;5.506;2023-04-06T10:44:02;101696.09;;;13.22;49.19
70248;BME280;57641;51.416;5.506;2023-04-06T10:46:29;101710.50;;;13.21;49.73
70248;BME280;57641;51.416;5.506;2023-04-06T10:48:56;101697.09;;;13.21;50.91
70248;BME280;57641;51.416;5.506;2023-04-06T10:51:27;101703.69;;;13.27;50.85
70248;BME280;57641;51.416;5.506;2023-04-06T10:53:54;101699.06;;;13.19;51.45
70248;BME280;57641;51.416;5.506;2023-04-06T10:56:23;101704.84;;;12.87;52.24
70248;BME280;57641;51.416;5.506;2023-04-06T10:58:54;101700.81;;;13.01;52.89
70248;BME280;57641;51.416;5.506;2023-04-06T11:01:24;101695.84;;;13.06;53.11
70248;BME280;57641;51.416;5.506;2023-04-06T11:03:56;101698.38;;;13.17;53.95
70248;BME280;57641;51.416;5.506;2023-04-06T11:06:27;101692.75;;;13.20;54.32
70248;BME280;57641;51.416;5.506;2023-04-06T11:08:54;101686.00;;;13.16;55.41
70248;BME280;57641;51.416;5.506;2023-04-06T11:11:22;101689.91;;;13.22;55.26
70248;BME280;57641;51.416;5.506;2023-04-06T11:13:56;101690.53;;;13.33;55.97
70248;BME280;57641;51.416;5.506;2023-04-06T11:16:24;101689.22;;;13.20;55.75
70248;BME280;57641;51.416;5.506;2023-04-06T11:19:04;101687.03;;;12.96;55.71
70248;BME280;57641;51.416;5.506;2023-04-06T11:21:39;101691.06;;;12.82;57.31
70248;BME280;57641;51.416;5.506;2023-04-06T11:27:04;101681.06;;;12.84;56.94
70248;BME280;57641;51.416;5.506;2023-04-06T11:29:30;101682.38;;;12.98;57.26
70248;BME280;57641;51.416;5.506;2023-04-06T11:32:04;101671.88;;;12.50;57.50
70248;BME280;57641;51.416;5.506;2023-04-06T11:34:37;101684.38;;;12.68;57.78
70248;BME280;57641;51.416;5.506;2023-04-06T11:37:08;101674.06;;;12.74;58.41
70248;BME280;57641;51.416;5.506;2023-04-06T11:39:39;101670.44;;;12.92;59.01
70248;BME280;57641;51.416;5.506;2023-04-06T11:42:06;101661.44;;;12.93;58.69
70248;BME280;57641;51.416;5.506;2023-04-06T11:47:06;101660.78;;;13.09;58.35
70248;BME280;57641;51.416;5.506;2023-04-06T11:49:40;101659.28;;;12.97;58.89
70248;BME280;57641;51.416;5.506;2023-04-06T11:54:45;101655.63;;;13.25;59.85
70248;BME280;57641;51.416;5.506;2023-04-06T11:57:12;101649.47;;;13.42;59.52
70248;BME280;57641;51.416;5.506;2023-04-06T11:59:41;101652.91;;;13.52;59.41
70248;BME280;57641;51.416;5.506;2023-04-06T12:02:06;101646.16;;;13.48;59.63
70248;BME280;57641;51.416;5.506;2023-04-06T12:04:32;101642.25;;;13.61;59.24
70248;BME280;57641;51.416;5.506;2023-04-06T12:06:58;101638.50;;;13.53;58.55
70248;BME280;57641;51.416;5.506;2023-04-06T12:09:24;101644.78;;;13.44;59.02
70248;BME280;57641;51.416;5.506;2023-04-06T12:11:50;101649.38;;;13.52;59.21
70248;BME280;57641;51.416;5.506;2023-04-06T12:14:16;101640.19;;;13.54;59.66
70248;BME280;57641;51.416;5.506;2023-04-06T12:16:41;101637.88;;;13.24;59.45
70248;BME280;57641;51.416;5.506;2023-04-06T12:19:10;101630.25;;;13.47;59.74
70248;BME280;57641;51.416;5.506;2023-04-06T12:21:36;101633.97;;;13.54;60.53
70248;BME280;57641;51.416;5.506;2023-04-06T12:24:03;101635.44;;;13.66;60.27
70248;BME280;57641;51.416;5.506;2023-04-06T12:26:29;101632.09;;;13.46;59.60
70248;BME280;57641;51.416;5.506;2023-04-06T12:28:55;101633.84;;;13.56;59.47
70248;BME280;57641;51.416;5.506;2023-04-06T12:31:22;101628.72;;;13.62;59.08
70248;BME280;57641;51.416;5.506;2023-04-06T12:33:49;101635.28;;;13.68;59.58
70248;BME280;57641;51.416;5.506;2023-04-06T12:36:16;101634.91;;;13.63;60.00
70248;BME280;57641;51.416;5.506;2023-04-06T12:38:45;101626.72;;;13.46;59.52
70248;BME280;57641;51.416;5.506;2023-04-06T12:41:11;101630.91;;;13.49;59.89
70248;BME280;57641;51.416;5.506;2023-04-06T12:43:38;101629.00;;;13.59;60.10
70248;BME280;57641;51.416;5.506;2023-04-06T12:46:04;101624.03;;;13.64;59.60
70248;BME280;57641;51.416;5.506;2023-04-06T12:48:30;101623.41;;;13.70;59.54
70248;BME280;57641;51.416;5.506;2023-04-06T12:51:00;101621.44;;;13.72;59.40
70248;BME280;57641;51.416;5.506;2023-04-06T12:53:27;101614.84;;;13.67;59.46
70248;BME280;57641;51.416;5.506;2023-04-06T12:55:54;101618.97;;;13.79;59.74
70248;BME280;57641;51.416;5.506;2023-04-06T12:58:21;101613.09;;;13.58;60.38
70248;BME280;57641;51.416;5.506;2023-04-06T13:00:48;101618.22;;;13.51;60.71
70248;BME280;57641;51.416;5.506;2023-04-06T13:03:14;101612.47;;;13.28;61.38
70248;BME280;57641;51.416;5.506;2023-04-06T13:05:44;101609.81;;;13.46;62.21